Flughafen - Meldungen

 

ETSL - Lechfeld (ger-Af, Germany
Distance from station: O 11km
aktuell: 22/10/2018 19:20
stark bewölkt
stark bewölkt
 Wind von S
Wind: S 6 km/h
Temperatur: 7°C
Taupunkt: 4°C
Luftfeuchte: 81%
Luftdruck: 1028 hPa
Clouds: stark bewölkt
Visibility: 10 km
Cloud details: stark bewölkt 2438 m
2018/10/22 17:20 ETSL 221720Z 18003KT 9999 BKN080 07/04 Q1028 BLU BLU
ETSA - Landsberg (ger-A, Germany
Distance from station: SO 17km
aktuell: 10/07/2018 07:20
NOT Current

 Wind von SW
Wind: SW 9 km/h
Temperatur: 15°C
Taupunkt: 11°C
Luftfeuchte: 77%
Luftdruck: 1017 hPa
Visibility: 10 km
2018/07/10 05:20 ETSA 100520Z AUTO 22005KT 9999 // ////// 15/11 Q1017 ///
EDMA - Augsburg/Mulhaus, Germany
Distance from station: NNO 32km
aktuell: 22/10/2018 19:20
klar
klar
 Wind von NNW
Wind: NNW 7 km/h
Temperatur: 11°C
Taupunkt: 3°C
Luftfeuchte: 58%
Luftdruck: 1028 hPa
Zusammenfassung: klar
Visibility: greater than 10 km
2018/10/22 17:20 EDMA 221720Z 34004KT CAVOK 11/03 Q1028
 
ETHA - Altenstadt/Schongau, Germany
Distance from station: SSO 40km
aktuell: 22/10/2018 19:20
Few Clouds
Few Clouds
 Wind von NNO
Wind: NNO 7 km/h
Temperatur: 7°C
Wind Chill: 6°C
Taupunkt: 3°C
Luftfeuchte: 76%
Luftdruck: 1028 hPa
Clouds: Few Clouds
Visibility: 10 km
Cloud details: Few Clouds 3048 m
2018/10/22 17:20 ETHA 221720Z 03004KT 9999 FEW100 07/03 Q1028 BLU+BLU+
EDJA - Memmingen Allgau, Germany
Distance from station: WSW 42km
aktuell: 22/10/2018 19:20
klar
klar
 Wind von O
Wind: O 4 km/h
Temperatur: 7°C
Taupunkt: 3°C
Luftfeuchte: 76%
Luftdruck: 1028 hPa
Zusammenfassung: klar
Visibility: greater than 10 km
2018/10/22 17:20 EDJA 221720Z 09002KT CAVOK 07/03 Q1028
EDMO - Oberpfaffenhofen, Germany
Distance from station: OSO 42km
aktuell: 22/10/2018 19:20
klar
klar
 Wind von SSW
Wind: SSW 6 km/h
Temperatur: 4°C
Taupunkt: 2°C
Luftfeuchte: 87%
Luftdruck: 1028 hPa
Zusammenfassung: klar
Visibility: greater than 10 km
2018/10/22 17:20 EDMO 221720Z 20003KT CAVOK 04/02 Q1028